sensor_id;sensor_type;location;lat;lon;timestamp;P1;durP1;ratioP1;P2;durP2;ratioP2
23628;SDS011;11991;57.150;-2.134;2023-03-26T00:01:25;5.67;;;2.07;;
23628;SDS011;11991;57.150;-2.134;2023-03-26T00:03:55;4.53;;;1.90;;
23628;SDS011;11991;57.150;-2.134;2023-03-26T00:06:27;3.47;;;1.37;;
23628;SDS011;11991;57.150;-2.134;2023-03-26T00:09:04;5.20;;;1.93;;
23628;SDS011;11991;57.150;-2.134;2023-03-26T00:11:33;4.47;;;1.60;;
23628;SDS011;11991;57.150;-2.134;2023-03-26T00:14:00;6.53;;;2.40;;
23628;SDS011;11991;57.150;-2.134;2023-03-26T00:16:29;8.60;;;2.57;;
23628;SDS011;11991;57.150;-2.134;2023-03-26T00:18:57;5.13;;;2.00;;
23628;SDS011;11991;57.150;-2.134;2023-03-26T00:21:27;3.47;;;1.87;;
23628;SDS011;11991;57.150;-2.134;2023-03-26T00:24:03;5.43;;;1.87;;
23628;SDS011;11991;57.150;-2.134;2023-03-26T00:26:33;7.87;;;2.00;;
23628;SDS011;11991;57.150;-2.134;2023-03-26T00:29:03;6.13;;;2.20;;
23628;SDS011;11991;57.150;-2.134;2023-03-26T00:31:32;6.60;;;2.23;;
23628;SDS011;11991;57.150;-2.134;2023-03-26T00:34:00;7.43;;;2.77;;
23628;SDS011;11991;57.150;-2.134;2023-03-26T00:36:29;5.77;;;1.90;;
23628;SDS011;11991;57.150;-2.134;2023-03-26T00:38:57;7.13;;;2.20;;
23628;SDS011;11991;57.150;-2.134;2023-03-26T00:41:24;3.43;;;1.67;;
23628;SDS011;11991;57.150;-2.134;2023-03-26T00:43:57;4.63;;;1.77;;
23628;SDS011;11991;57.150;-2.134;2023-03-26T00:46:27;4.83;;;2.37;;
23628;SDS011;11991;57.150;-2.134;2023-03-26T00:48:56;5.97;;;2.50;;
23628;SDS011;11991;57.150;-2.134;2023-03-26T00:51:27;6.70;;;2.33;;
23628;SDS011;11991;57.150;-2.134;2023-03-26T00:53:56;4.70;;;1.93;;
23628;SDS011;11991;57.150;-2.134;2023-03-26T00:56:23;7.07;;;2.70;;
23628;SDS011;11991;57.150;-2.134;2023-03-26T00:58:51;3.60;;;1.97;;
23628;SDS011;11991;57.150;-2.134;2023-03-26T01:01:21;7.40;;;2.50;;
23628;SDS011;11991;57.150;-2.134;2023-03-26T01:03:55;3.30;;;1.50;;
23628;SDS011;11991;57.150;-2.134;2023-03-26T01:06:35;4.73;;;2.13;;
23628;SDS011;11991;57.150;-2.134;2023-03-26T01:09:14;5.50;;;2.37;;
23628;SDS011;11991;57.150;-2.134;2023-03-26T01:11:45;5.90;;;1.93;;
23628;SDS011;11991;57.150;-2.134;2023-03-26T01:14:18;5.53;;;1.87;;
23628;SDS011;11991;57.150;-2.134;2023-03-26T01:16:55;4.23;;;1.97;;
23628;SDS011;11991;57.150;-2.134;2023-03-26T01:22:20;4.63;;;1.90;;
23628;SDS011;11991;57.150;-2.134;2023-03-26T01:24:52;6.23;;;2.50;;
23628;SDS011;11991;57.150;-2.134;2023-03-26T01:30:19;3.40;;;1.70;;
23628;SDS011;11991;57.150;-2.134;2023-03-26T01:33:01;7.80;;;2.17;;
23628;SDS011;11991;57.150;-2.134;2023-03-26T01:35:44;4.33;;;1.40;;
23628;SDS011;11991;57.150;-2.134;2023-03-26T01:38:19;5.07;;;1.93;;
23628;SDS011;11991;57.150;-2.134;2023-03-26T01:41:09;4.97;;;2.03;;
23628;SDS011;11991;57.150;-2.134;2023-03-26T01:46:19;3.43;;;1.73;;
23628;SDS011;11991;57.150;-2.134;2023-03-26T01:48:49;4.03;;;1.43;;
23628;SDS011;11991;57.150;-2.134;2023-03-26T01:51:25;6.43;;;2.03;;
23628;SDS011;11991;57.150;-2.134;2023-03-26T01:53:57;7.20;;;2.47;;
23628;SDS011;11991;57.150;-2.134;2023-03-26T01:56:30;4.33;;;1.60;;
23628;SDS011;11991;57.150;-2.134;2023-03-26T02:02:10;8.13;;;3.20;;
23628;SDS011;11991;57.150;-2.134;2023-03-26T02:10:14;4.20;;;2.20;;
23628;SDS011;11991;57.150;-2.134;2023-03-26T02:12:51;3.00;;;1.70;;
23628;SDS011;11991;57.150;-2.134;2023-03-26T02:15:19;5.23;;;1.57;;
23628;SDS011;11991;57.150;-2.134;2023-03-26T02:17:47;9.77;;;2.93;;
23628;SDS011;11991;57.150;-2.134;2023-03-26T02:20:15;7.33;;;2.40;;
23628;SDS011;11991;57.150;-2.134;2023-03-26T02:22:44;10.27;;;2.33;;
23628;SDS011;11991;57.150;-2.134;2023-03-26T02:25:19;5.80;;;2.27;;
23628;SDS011;11991;57.150;-2.134;2023-03-26T02:27:49;8.70;;;3.20;;
23628;SDS011;11991;57.150;-2.134;2023-03-26T02:30:23;6.70;;;2.50;;
23628;SDS011;11991;57.150;-2.134;2023-03-26T02:32:54;2.10;;;1.20;;
23628;SDS011;11991;57.150;-2.134;2023-03-26T02:35:31;4.57;;;1.60;;
23628;SDS011;11991;57.150;-2.134;2023-03-26T02:38:00;6.67;;;2.57;;
23628;SDS011;11991;57.150;-2.134;2023-03-26T02:40:27;6.57;;;2.00;;
23628;SDS011;11991;57.150;-2.134;2023-03-26T02:42:55;6.20;;;2.00;;
23628;SDS011;11991;57.150;-2.134;2023-03-26T02:45:23;4.80;;;1.67;;
23628;SDS011;11991;57.150;-2.134;2023-03-26T02:48:05;4.00;;;2.03;;
23628;SDS011;11991;57.150;-2.134;2023-03-26T02:50:46;5.00;;;1.70;;
23628;SDS011;11991;57.150;-2.134;2023-03-26T02:53:21;3.57;;;1.50;;
23628;SDS011;11991;57.150;-2.134;2023-03-26T02:56:13;4.23;;;1.70;;
23628;SDS011;11991;57.150;-2.134;2023-03-26T02:58:52;3.60;;;1.40;;
23628;SDS011;11991;57.150;-2.134;2023-03-26T03:01:19;3.23;;;1.47;;
23628;SDS011;11991;57.150;-2.134;2023-03-26T03:03:54;4.90;;;2.27;;
23628;SDS011;11991;57.150;-2.134;2023-03-26T03:06:32;2.57;;;1.43;;
23628;SDS011;11991;57.150;-2.134;2023-03-26T03:08:59;2.50;;;1.37;;
23628;SDS011;11991;57.150;-2.134;2023-03-26T03:11:34;4.87;;;1.57;;
23628;SDS011;11991;57.150;-2.134;2023-03-26T03:14:03;2.60;;;1.20;;
23628;SDS011;11991;57.150;-2.134;2023-03-26T03:16:32;3.97;;;1.47;;
23628;SDS011;11991;57.150;-2.134;2023-03-26T03:19:08;3.70;;;1.30;;
23628;SDS011;11991;57.150;-2.134;2023-03-26T03:21:36;2.33;;;0.90;;
23628;SDS011;11991;57.150;-2.134;2023-03-26T03:24:04;4.27;;;2.03;;
23628;SDS011;11991;57.150;-2.134;2023-03-26T03:26:35;4.97;;;1.47;;
23628;SDS011;11991;57.150;-2.134;2023-03-26T03:29:21;3.70;;;1.47;;
23628;SDS011;11991;57.150;-2.134;2023-03-26T03:31:49;3.23;;;1.20;;
23628;SDS011;11991;57.150;-2.134;2023-03-26T03:34:34;3.90;;;1.47;;
23628;SDS011;11991;57.150;-2.134;2023-03-26T03:37:04;7.00;;;1.73;;
23628;SDS011;11991;57.150;-2.134;2023-03-26T03:39:40;3.03;;;1.53;;
23628;SDS011;11991;57.150;-2.134;2023-03-26T03:42:09;3.47;;;1.43;;
23628;SDS011;11991;57.150;-2.134;2023-03-26T03:44:37;3.70;;;1.57;;
23628;SDS011;11991;57.150;-2.134;2023-03-26T03:47:13;1.87;;;1.03;;
23628;SDS011;11991;57.150;-2.134;2023-03-26T03:49:41;2.77;;;1.30;;
23628;SDS011;11991;57.150;-2.134;2023-03-26T03:52:08;3.07;;;1.30;;
23628;SDS011;11991;57.150;-2.134;2023-03-26T03:54:39;6.00;;;1.90;;
23628;SDS011;11991;57.150;-2.134;2023-03-26T03:57:13;5.17;;;1.67;;
23628;SDS011;11991;57.150;-2.134;2023-03-26T03:59:58;4.03;;;1.57;;
23628;SDS011;11991;57.150;-2.134;2023-03-26T04:02:29;4.57;;;1.43;;
23628;SDS011;11991;57.150;-2.134;2023-03-26T04:05:03;5.67;;;1.90;;
23628;SDS011;11991;57.150;-2.134;2023-03-26T04:07:32;5.03;;;1.53;;
23628;SDS011;11991;57.150;-2.134;2023-03-26T04:10:06;5.13;;;2.80;;
23628;SDS011;11991;57.150;-2.134;2023-03-26T04:12:54;5.83;;;1.47;;
23628;SDS011;11991;57.150;-2.134;2023-03-26T04:16:00;4.37;;;1.67;;
23628;SDS011;11991;57.150;-2.134;2023-03-26T04:18:28;5.83;;;1.60;;
23628;SDS011;11991;57.150;-2.134;2023-03-26T04:21:05;4.27;;;1.73;;
23628;SDS011;11991;57.150;-2.134;2023-03-26T04:23:33;6.40;;;1.80;;
23628;SDS011;11991;57.150;-2.134;2023-03-26T04:26:10;6.97;;;1.77;;
23628;SDS011;11991;57.150;-2.134;2023-03-26T04:29:01;4.73;;;1.80;;
23628;SDS011;11991;57.150;-2.134;2023-03-26T04:31:33;3.43;;;1.53;;
23628;SDS011;11991;57.150;-2.134;2023-03-26T04:34:04;3.00;;;1.50;;
23628;SDS011;11991;57.150;-2.134;2023-03-26T04:36:42;2.07;;;1.50;;
23628;SDS011;11991;57.150;-2.134;2023-03-26T04:39:13;4.17;;;2.20;;
23628;SDS011;11991;57.150;-2.134;2023-03-26T04:41:59;4.43;;;1.80;;
23628;SDS011;11991;57.150;-2.134;2023-03-26T04:44:36;4.50;;;1.97;;
23628;SDS011;11991;57.150;-2.134;2023-03-26T04:47:08;3.97;;;2.23;;
23628;SDS011;11991;57.150;-2.134;2023-03-26T04:49:44;4.47;;;2.10;;
23628;SDS011;11991;57.150;-2.134;2023-03-26T04:52:14;4.57;;;1.40;;
23628;SDS011;11991;57.150;-2.134;2023-03-26T04:55:18;4.17;;;1.57;;
23628;SDS011;11991;57.150;-2.134;2023-03-26T04:58:16;3.00;;;1.70;;
23628;SDS011;11991;57.150;-2.134;2023-03-26T05:00:53;6.30;;;2.20;;
23628;SDS011;11991;57.150;-2.134;2023-03-26T05:03:21;4.87;;;1.60;;
23628;SDS011;11991;57.150;-2.134;2023-03-26T05:05:48;5.73;;;1.70;;
23628;SDS011;11991;57.150;-2.134;2023-03-26T05:08:15;4.83;;;1.90;;
23628;SDS011;11991;57.150;-2.134;2023-03-26T05:10:42;5.07;;;1.60;;
23628;SDS011;11991;57.150;-2.134;2023-03-26T05:13:14;5.87;;;1.87;;
23628;SDS011;11991;57.150;-2.134;2023-03-26T05:15:46;6.17;;;2.13;;
23628;SDS011;11991;57.150;-2.134;2023-03-26T05:18:28;5.10;;;1.80;;
23628;SDS011;11991;57.150;-2.134;2023-03-26T05:20:55;2.83;;;1.67;;
23628;SDS011;11991;57.150;-2.134;2023-03-26T05:23:23;5.43;;;2.10;;
23628;SDS011;11991;57.150;-2.134;2023-03-26T05:26:07;4.53;;;1.77;;
23628;SDS011;11991;57.150;-2.134;2023-03-26T05:28:35;7.40;;;1.93;;
23628;SDS011;11991;57.150;-2.134;2023-03-26T05:31:24;5.00;;;2.00;;
23628;SDS011;11991;57.150;-2.134;2023-03-26T05:33:58;5.70;;;2.00;;
23628;SDS011;11991;57.150;-2.134;2023-03-26T05:36:28;3.83;;;1.77;;
23628;SDS011;11991;57.150;-2.134;2023-03-26T05:39:08;6.00;;;3.03;;
23628;SDS011;11991;57.150;-2.134;2023-03-26T05:42:02;5.00;;;1.90;;
23628;SDS011;11991;57.150;-2.134;2023-03-26T05:44:49;2.13;;;1.33;;
23628;SDS011;11991;57.150;-2.134;2023-03-26T05:47:22;6.87;;;2.20;;
23628;SDS011;11991;57.150;-2.134;2023-03-26T05:49:50;5.17;;;1.80;;
23628;SDS011;11991;57.150;-2.134;2023-03-26T05:52:18;2.80;;;1.53;;
23628;SDS011;11991;57.150;-2.134;2023-03-26T05:55:04;4.37;;;1.70;;
23628;SDS011;11991;57.150;-2.134;2023-03-26T05:58:02;4.60;;;1.73;;
23628;SDS011;11991;57.150;-2.134;2023-03-26T06:00:47;4.00;;;2.00;;
23628;SDS011;11991;57.150;-2.134;2023-03-26T06:03:27;5.50;;;1.87;;
23628;SDS011;11991;57.150;-2.134;2023-03-26T06:06:06;3.77;;;1.73;;
23628;SDS011;11991;57.150;-2.134;2023-03-26T06:08:44;4.63;;;2.13;;
23628;SDS011;11991;57.150;-2.134;2023-03-26T06:11:28;3.60;;;1.87;;
23628;SDS011;11991;57.150;-2.134;2023-03-26T06:13:56;3.57;;;1.87;;
23628;SDS011;11991;57.150;-2.134;2023-03-26T06:16:24;9.03;;;1.77;;
23628;SDS011;11991;57.150;-2.134;2023-03-26T06:19:10;4.63;;;2.00;;
23628;SDS011;11991;57.150;-2.134;2023-03-26T06:22:02;4.13;;;1.53;;
23628;SDS011;11991;57.150;-2.134;2023-03-26T06:24:39;6.17;;;2.13;;
23628;SDS011;11991;57.150;-2.134;2023-03-26T06:27:29;3.30;;;1.50;;
23628;SDS011;11991;57.150;-2.134;2023-03-26T06:30:15;3.70;;;1.80;;
23628;SDS011;11991;57.150;-2.134;2023-03-26T06:33:05;3.60;;;1.60;;
23628;SDS011;11991;57.150;-2.134;2023-03-26T06:35:39;3.47;;;1.67;;
23628;SDS011;11991;57.150;-2.134;2023-03-26T06:38:08;4.27;;;2.10;;
23628;SDS011;11991;57.150;-2.134;2023-03-26T06:40:36;3.17;;;1.50;;
23628;SDS011;11991;57.150;-2.134;2023-03-26T06:43:35;5.20;;;1.70;;
23628;SDS011;11991;57.150;-2.134;2023-03-26T06:46:07;6.67;;;1.73;;
23628;SDS011;11991;57.150;-2.134;2023-03-26T06:48:53;4.17;;;1.93;;
23628;SDS011;11991;57.150;-2.134;2023-03-26T06:51:39;4.47;;;2.00;;
23628;SDS011;11991;57.150;-2.134;2023-03-26T06:54:17;5.17;;;2.87;;
23628;SDS011;11991;57.150;-2.134;2023-03-26T06:57:00;1.87;;;1.40;;
23628;SDS011;11991;57.150;-2.134;2023-03-26T06:59:45;2.57;;;1.60;;
23628;SDS011;11991;57.150;-2.134;2023-03-26T07:02:42;3.13;;;1.60;;
23628;SDS011;11991;57.150;-2.134;2023-03-26T07:05:41;4.77;;;1.80;;
23628;SDS011;11991;57.150;-2.134;2023-03-26T07:08:28;6.70;;;1.97;;
23628;SDS011;11991;57.150;-2.134;2023-03-26T07:11:15;3.30;;;1.90;;
23628;SDS011;11991;57.150;-2.134;2023-03-26T07:14:08;1.87;;;1.40;;
23628;SDS011;11991;57.150;-2.134;2023-03-26T07:16:38;4.73;;;1.87;;
23628;SDS011;11991;57.150;-2.134;2023-03-26T07:19:08;2.73;;;1.47;;
23628;SDS011;11991;57.150;-2.134;2023-03-26T07:21:38;5.07;;;1.80;;
23628;SDS011;11991;57.150;-2.134;2023-03-26T07:24:28;2.17;;;1.20;;
23628;SDS011;11991;57.150;-2.134;2023-03-26T07:33:23;2.90;;;1.30;;
23628;SDS011;11991;57.150;-2.134;2023-03-26T07:36:13;4.63;;;1.57;;
23628;SDS011;11991;57.150;-2.134;2023-03-26T07:43:05;3.13;;;1.40;;
23628;SDS011;11991;57.150;-2.134;2023-03-26T07:46:00;5.87;;;1.23;;
23628;SDS011;11991;57.150;-2.134;2023-03-26T07:48:49;1.80;;;1.17;;
23628;SDS011;11991;57.150;-2.134;2023-03-26T07:51:40;2.20;;;1.10;;
23628;SDS011;11991;57.150;-2.134;2023-03-26T07:54:23;2.10;;;1.20;;
23628;SDS011;11991;57.150;-2.134;2023-03-26T07:57:39;5.60;;;1.87;;
23628;SDS011;11991;57.150;-2.134;2023-03-26T08:10:28;4.43;;;1.50;;
23628;SDS011;11991;57.150;-2.134;2023-03-26T08:13:22;2.80;;;1.37;;
23628;SDS011;11991;57.150;-2.134;2023-03-26T08:16:06;2.40;;;1.33;;
23628;SDS011;11991;57.150;-2.134;2023-03-26T08:18:45;4.73;;;1.67;;
23628;SDS011;11991;57.150;-2.134;2023-03-26T08:21:37;1.93;;;1.60;;
23628;SDS011;11991;57.150;-2.134;2023-03-26T08:27:20;4.00;;;1.53;;
23628;SDS011;11991;57.150;-2.134;2023-03-26T08:29:58;3.97;;;1.63;;
23628;SDS011;11991;57.150;-2.134;2023-03-26T08:32:27;4.53;;;1.40;;
23628;SDS011;11991;57.150;-2.134;2023-03-26T08:34:55;2.77;;;1.33;;
23628;SDS011;11991;57.150;-2.134;2023-03-26T08:37:23;3.83;;;1.10;;
23628;SDS011;11991;57.150;-2.134;2023-03-26T08:39:50;1.43;;;1.13;;
23628;SDS011;11991;57.150;-2.134;2023-03-26T08:45:37;3.70;;;1.30;;
23628;SDS011;11991;57.150;-2.134;2023-03-26T09:05:22;2.83;;;1.30;;
23628;SDS011;11991;57.150;-2.134;2023-03-26T09:35:53;1.80;;;1.23;;
23628;SDS011;11991;57.150;-2.134;2023-03-26T09:38:39;2.70;;;1.70;;
23628;SDS011;11991;57.150;-2.134;2023-03-26T09:46:36;3.07;;;1.07;;
23628;SDS011;11991;57.150;-2.134;2023-03-26T09:54:43;1.20;;;0.73;;
23628;SDS011;11991;57.150;-2.134;2023-03-26T09:57:53;1.70;;;0.80;;
23628;SDS011;11991;57.150;-2.134;2023-03-26T10:00:35;2.20;;;0.80;;
23628;SDS011;11991;57.150;-2.134;2023-03-26T10:03:44;0.60;;;0.60;;
23628;SDS011;11991;57.150;-2.134;2023-03-26T10:06:25;3.13;;;0.90;;
23628;SDS011;11991;57.150;-2.134;2023-03-26T10:09:12;2.00;;;1.10;;
23628;SDS011;11991;57.150;-2.134;2023-03-26T10:12:00;3.33;;;0.90;;
23628;SDS011;11991;57.150;-2.134;2023-03-26T10:14:47;1.20;;;0.63;;
23628;SDS011;11991;57.150;-2.134;2023-03-26T10:20:18;1.63;;;0.90;;
23628;SDS011;11991;57.150;-2.134;2023-03-26T10:40:17;1.38;;;0.88;;
23628;SDS011;11991;57.150;-2.134;2023-03-26T10:57:13;2.37;;;0.70;;
23628;SDS011;11991;57.150;-2.134;2023-03-26T10:59:44;2.27;;;0.80;;
23628;SDS011;11991;57.150;-2.134;2023-03-26T11:02:45;1.87;;;1.00;;
23628;SDS011;11991;57.150;-2.134;2023-03-26T11:11:16;2.30;;;1.17;;
23628;SDS011;11991;57.150;-2.134;2023-03-26T11:13:56;1.00;;;0.80;;
23628;SDS011;11991;57.150;-2.134;2023-03-26T11:16:46;3.33;;;1.20;;
23628;SDS011;11991;57.150;-2.134;2023-03-26T11:25:00;4.00;;;1.23;;
23628;SDS011;11991;57.150;-2.134;2023-03-26T11:30:45;3.17;;;1.57;;
23628;SDS011;11991;57.150;-2.134;2023-03-26T11:33:31;3.47;;;1.20;;
23628;SDS011;11991;57.150;-2.134;2023-03-26T11:36:12;4.23;;;1.20;;
23628;SDS011;11991;57.150;-2.134;2023-03-26T11:38:45;2.00;;;1.10;;
23628;SDS011;11991;57.150;-2.134;2023-03-26T11:41:21;2.80;;;1.30;;
23628;SDS011;11991;57.150;-2.134;2023-03-26T11:44:18;3.10;;;1.43;;
23628;SDS011;11991;57.150;-2.134;2023-03-26T11:46:44;2.47;;;1.17;;
23628;SDS011;11991;57.150;-2.134;2023-03-26T11:49:18;2.53;;;1.00;;
23628;SDS011;11991;57.150;-2.134;2023-03-26T11:51:48;4.33;;;1.20;;
23628;SDS011;11991;57.150;-2.134;2023-03-26T11:54:15;3.23;;;1.23;;
23628;SDS011;11991;57.150;-2.134;2023-03-26T11:56:47;3.17;;;1.00;;
23628;SDS011;11991;57.150;-2.134;2023-03-26T12:02:30;5.63;;;1.50;;
23628;SDS011;11991;57.150;-2.134;2023-03-26T12:07:49;1.63;;;1.00;;
23628;SDS011;11991;57.150;-2.134;2023-03-26T12:10:26;1.97;;;0.90;;
23628;SDS011;11991;57.150;-2.134;2023-03-26T12:13:01;3.50;;;1.43;;
23628;SDS011;11991;57.150;-2.134;2023-03-26T12:16:14;4.20;;;1.83;;
23628;SDS011;11991;57.150;-2.134;2023-03-26T12:18:44;2.67;;;1.10;;
23628;SDS011;11991;57.150;-2.134;2023-03-26T12:21:22;2.03;;;1.20;;
23628;SDS011;11991;57.150;-2.134;2023-03-26T12:26:37;3.70;;;1.20;;
23628;SDS011;11991;57.150;-2.134;2023-03-26T12:29:13;3.17;;;1.07;;
23628;SDS011;11991;57.150;-2.134;2023-03-26T12:31:47;3.47;;;1.30;;
23628;SDS011;11991;57.150;-2.134;2023-03-26T12:34:34;4.50;;;1.20;;
23628;SDS011;11991;57.150;-2.134;2023-03-26T12:37:04;2.80;;;1.27;;
23628;SDS011;11991;57.150;-2.134;2023-03-26T12:42:28;2.80;;;0.87;;
23628;SDS011;11991;57.150;-2.134;2023-03-26T12:45:29;4.57;;;1.30;;
23628;SDS011;11991;57.150;-2.134;2023-03-26T12:48:03;3.70;;;1.00;;
23628;SDS011;11991;57.150;-2.134;2023-03-26T12:50:41;2.60;;;0.90;;
23628;SDS011;11991;57.150;-2.134;2023-03-26T12:56:06;2.43;;;0.70;;
23628;SDS011;11991;57.150;-2.134;2023-03-26T13:10:34;1.83;;;1.20;;
23628;SDS011;11991;57.150;-2.134;2023-03-26T13:16:15;2.20;;;1.03;;
23628;SDS011;11991;57.150;-2.134;2023-03-26T13:27:30;2.33;;;1.20;;
23628;SDS011;11991;57.150;-2.134;2023-03-26T13:39:08;1.80;;;1.17;;
23628;SDS011;11991;57.150;-2.134;2023-03-26T13:47:35;2.60;;;1.50;;
23628;SDS011;11991;57.150;-2.134;2023-03-26T13:50:17;3.90;;;1.40;;
23628;SDS011;11991;57.150;-2.134;2023-03-26T14:03:42;3.08;;;1.10;;
23628;SDS011;11991;57.150;-2.134;2023-03-26T14:14:57;3.45;;;1.00;;
23628;SDS011;11991;57.150;-2.134;2023-03-26T14:17:36;4.47;;;1.25;;
23628;SDS011;11991;57.150;-2.134;2023-03-26T14:34:10;4.47;;;1.30;;
23628;SDS011;11991;57.150;-2.134;2023-03-26T14:37:12;3.00;;;1.50;;
23628;SDS011;11991;57.150;-2.134;2023-03-26T14:42:50;3.88;;;1.45;;
23628;SDS011;11991;57.150;-2.134;2023-03-26T14:51:11;2.85;;;1.70;;
23628;SDS011;11991;57.150;-2.134;2023-03-26T14:53:45;2.80;;;1.30;;
23628;SDS011;11991;57.150;-2.134;2023-03-26T15:10:51;2.55;;;1.38;;
23628;SDS011;11991;57.150;-2.134;2023-03-26T15:16:07;4.57;;;1.77;;
23628;SDS011;11991;57.150;-2.134;2023-03-26T15:44:06;2.88;;;1.45;;
23628;SDS011;11991;57.150;-2.134;2023-03-26T15:46:58;2.40;;;1.40;;
23628;SDS011;11991;57.150;-2.134;2023-03-26T15:49:40;3.43;;;1.27;;
23628;SDS011;11991;57.150;-2.134;2023-03-26T15:52:32;2.72;;;1.30;;
23628;SDS011;11991;57.150;-2.134;2023-03-26T15:55:08;2.58;;;1.13;;
23628;SDS011;11991;57.150;-2.134;2023-03-26T16:00:28;2.22;;;1.17;;
23628;SDS011;11991;57.150;-2.134;2023-03-26T16:17:01;2.53;;;1.43;;
23628;SDS011;11991;57.150;-2.134;2023-03-26T16:22:08;2.85;;;1.20;;
23628;SDS011;11991;57.150;-2.134;2023-03-26T16:24:43;3.22;;;1.10;;
23628;SDS011;11991;57.150;-2.134;2023-03-26T16:27:25;3.47;;;1.08;;
23628;SDS011;11991;57.150;-2.134;2023-03-26T16:32:26;2.60;;;1.08;;
23628;SDS011;11991;57.150;-2.134;2023-03-26T16:35:03;3.53;;;1.20;;
23628;SDS011;11991;57.150;-2.134;2023-03-26T16:37:47;3.47;;;1.20;;
23628;SDS011;11991;57.150;-2.134;2023-03-26T16:51:33;2.50;;;1.02;;
23628;SDS011;11991;57.150;-2.134;2023-03-26T16:57:52;4.32;;;1.25;;
23628;SDS011;11991;57.150;-2.134;2023-03-26T17:03:05;1.98;;;1.50;;
23628;SDS011;11991;57.150;-2.134;2023-03-26T17:06:08;2.42;;;1.40;;
23628;SDS011;11991;57.150;-2.134;2023-03-26T17:11:46;1.93;;;1.50;;
23628;SDS011;11991;57.150;-2.134;2023-03-26T17:14:41;3.10;;;1.50;;
23628;SDS011;11991;57.150;-2.134;2023-03-26T17:22:28;2.17;;;1.30;;
23628;SDS011;11991;57.150;-2.134;2023-03-26T17:25:26;3.33;;;1.50;;
23628;SDS011;11991;57.150;-2.134;2023-03-26T17:28:28;2.77;;;1.83;;
23628;SDS011;11991;57.150;-2.134;2023-03-26T17:33:34;3.03;;;1.20;;
23628;SDS011;11991;57.150;-2.134;2023-03-26T17:41:10;3.67;;;1.20;;
23628;SDS011;11991;57.150;-2.134;2023-03-26T17:43:52;3.03;;;1.50;;
23628;SDS011;11991;57.150;-2.134;2023-03-26T17:46:35;1.77;;;1.10;;
23628;SDS011;11991;57.150;-2.134;2023-03-26T17:56:59;2.77;;;1.67;;
23628;SDS011;11991;57.150;-2.134;2023-03-26T17:59:31;3.73;;;1.20;;
23628;SDS011;11991;57.150;-2.134;2023-03-26T18:02:04;2.37;;;1.33;;
23628;SDS011;11991;57.150;-2.134;2023-03-26T18:04:39;3.30;;;1.67;;
23628;SDS011;11991;57.150;-2.134;2023-03-26T18:10:01;2.77;;;1.43;;
23628;SDS011;11991;57.150;-2.134;2023-03-26T18:21:03;1.67;;;1.20;;
23628;SDS011;11991;57.150;-2.134;2023-03-26T18:26:38;3.93;;;1.40;;
23628;SDS011;11991;57.150;-2.134;2023-03-26T18:29:10;3.80;;;1.20;;
23628;SDS011;11991;57.150;-2.134;2023-03-26T18:31:48;3.40;;;1.60;;
23628;SDS011;11991;57.150;-2.134;2023-03-26T18:34:20;3.30;;;2.37;;
23628;SDS011;11991;57.150;-2.134;2023-03-26T18:42:28;3.90;;;1.50;;
23628;SDS011;11991;57.150;-2.134;2023-03-26T18:44:58;4.67;;;1.50;;
23628;SDS011;11991;57.150;-2.134;2023-03-26T18:47:30;3.07;;;1.43;;
23628;SDS011;11991;57.150;-2.134;2023-03-26T18:49:58;2.47;;;1.50;;
23628;SDS011;11991;57.150;-2.134;2023-03-26T18:52:26;4.00;;;1.93;;
23628;SDS011;11991;57.150;-2.134;2023-03-26T18:54:54;4.47;;;2.67;;
23628;SDS011;11991;57.150;-2.134;2023-03-26T18:57:25;3.13;;;1.37;;
23628;SDS011;11991;57.150;-2.134;2023-03-26T18:59:56;5.33;;;1.53;;
23628;SDS011;11991;57.150;-2.134;2023-03-26T19:03:04;2.83;;;1.30;;
23628;SDS011;11991;57.150;-2.134;2023-03-26T19:05:33;3.27;;;2.07;;
23628;SDS011;11991;57.150;-2.134;2023-03-26T19:08:02;3.67;;;2.50;;
23628;SDS011;11991;57.150;-2.134;2023-03-26T19:10:31;4.40;;;1.97;;
23628;SDS011;11991;57.150;-2.134;2023-03-26T19:12:59;3.70;;;1.90;;
23628;SDS011;11991;57.150;-2.134;2023-03-26T19:15:28;2.70;;;1.60;;
23628;SDS011;11991;57.150;-2.134;2023-03-26T19:18:01;2.47;;;1.40;;
23628;SDS011;11991;57.150;-2.134;2023-03-26T19:20:52;3.17;;;1.40;;
23628;SDS011;11991;57.150;-2.134;2023-03-26T19:23:56;4.03;;;1.57;;
23628;SDS011;11991;57.150;-2.134;2023-03-26T19:26:16;2.57;;;2.00;;
23628;SDS011;11991;57.150;-2.134;2023-03-26T19:28:48;2.87;;;1.47;;
23628;SDS011;11991;57.150;-2.134;2023-03-26T19:31:24;3.27;;;1.97;;
23628;SDS011;11991;57.150;-2.134;2023-03-26T19:36:32;4.60;;;1.53;;
23628;SDS011;11991;57.150;-2.134;2023-03-26T19:41:31;2.93;;;1.20;;
23628;SDS011;11991;57.150;-2.134;2023-03-26T19:44:02;5.23;;;1.80;;
23628;SDS011;11991;57.150;-2.134;2023-03-26T19:46:42;4.47;;;2.43;;
23628;SDS011;11991;57.150;-2.134;2023-03-26T19:49:32;5.23;;;2.17;;
23628;SDS011;11991;57.150;-2.134;2023-03-26T19:52:34;3.43;;;1.43;;
23628;SDS011;11991;57.150;-2.134;2023-03-26T19:57:35;2.33;;;1.20;;
23628;SDS011;11991;57.150;-2.134;2023-03-26T20:00:04;4.37;;;2.07;;
23628;SDS011;11991;57.150;-2.134;2023-03-26T20:02:43;5.10;;;2.17;;
23628;SDS011;11991;57.150;-2.134;2023-03-26T20:05:19;3.93;;;1.50;;
23628;SDS011;11991;57.150;-2.134;2023-03-26T20:07:51;5.83;;;2.30;;
23628;SDS011;11991;57.150;-2.134;2023-03-26T20:10:21;9.97;;;3.93;;
23628;SDS011;11991;57.150;-2.134;2023-03-26T20:12:49;3.40;;;2.27;;
23628;SDS011;11991;57.150;-2.134;2023-03-26T20:17:50;6.80;;;3.70;;
23628;SDS011;11991;57.150;-2.134;2023-03-26T20:20:23;5.60;;;3.50;;
23628;SDS011;11991;57.150;-2.134;2023-03-26T20:22:52;7.43;;;5.20;;
23628;SDS011;11991;57.150;-2.134;2023-03-26T20:25:27;9.30;;;5.63;;
23628;SDS011;11991;57.150;-2.134;2023-03-26T20:27:57;9.60;;;6.30;;
23628;SDS011;11991;57.150;-2.134;2023-03-26T20:30:25;7.53;;;5.53;;
23628;SDS011;11991;57.150;-2.134;2023-03-26T20:33:03;7.57;;;4.90;;
23628;SDS011;11991;57.150;-2.134;2023-03-26T20:35:39;9.53;;;7.67;;
23628;SDS011;11991;57.150;-2.134;2023-03-26T20:38:07;4.33;;;3.23;;
23628;SDS011;11991;57.150;-2.134;2023-03-26T20:40:36;3.40;;;2.20;;
23628;SDS011;11991;57.150;-2.134;2023-03-26T20:43:07;2.93;;;2.30;;
23628;SDS011;11991;57.150;-2.134;2023-03-26T20:45:37;4.33;;;3.50;;
23628;SDS011;11991;57.150;-2.134;2023-03-26T20:48:04;2.90;;;2.40;;
23628;SDS011;11991;57.150;-2.134;2023-03-26T20:50:32;2.77;;;2.40;;
23628;SDS011;11991;57.150;-2.134;2023-03-26T20:53:03;3.50;;;1.47;;
23628;SDS011;11991;57.150;-2.134;2023-03-26T20:55:31;3.10;;;1.30;;
23628;SDS011;11991;57.150;-2.134;2023-03-26T20:58:01;2.23;;;1.40;;
23628;SDS011;11991;57.150;-2.134;2023-03-26T21:00:29;1.93;;;1.50;;
23628;SDS011;11991;57.150;-2.134;2023-03-26T21:02:57;2.07;;;1.50;;
23628;SDS011;11991;57.150;-2.134;2023-03-26T21:05:25;1.20;;;1.00;;
23628;SDS011;11991;57.150;-2.134;2023-03-26T21:07:59;1.53;;;1.07;;
23628;SDS011;11991;57.150;-2.134;2023-03-26T21:10:27;3.10;;;1.40;;
23628;SDS011;11991;57.150;-2.134;2023-03-26T21:13:13;2.53;;;1.73;;
23628;SDS011;11991;57.150;-2.134;2023-03-26T21:15:56;3.27;;;0.97;;
23628;SDS011;11991;57.150;-2.134;2023-03-26T21:18:26;1.90;;;1.37;;
23628;SDS011;11991;57.150;-2.134;2023-03-26T21:24:04;3.23;;;1.00;;
23628;SDS011;11991;57.150;-2.134;2023-03-26T21:26:36;2.10;;;1.30;;
23628;SDS011;11991;57.150;-2.134;2023-03-26T21:29:09;2.47;;;1.13;;
23628;SDS011;11991;57.150;-2.134;2023-03-26T21:31:37;2.10;;;1.40;;
23628;SDS011;11991;57.150;-2.134;2023-03-26T21:34:04;2.10;;;1.00;;
23628;SDS011;11991;57.150;-2.134;2023-03-26T21:36:33;4.37;;;1.00;;
23628;SDS011;11991;57.150;-2.134;2023-03-26T21:39:02;1.37;;;0.80;;
23628;SDS011;11991;57.150;-2.134;2023-03-26T21:41:47;1.60;;;0.90;;
23628;SDS011;11991;57.150;-2.134;2023-03-26T21:44:31;2.27;;;0.93;;
23628;SDS011;11991;57.150;-2.134;2023-03-26T21:46:59;2.23;;;1.00;;
23628;SDS011;11991;57.150;-2.134;2023-03-26T21:49:27;3.23;;;0.83;;
23628;SDS011;11991;57.150;-2.134;2023-03-26T21:51:55;1.97;;;1.10;;